Time;durP1;ratioP1;P1;durP2;ratioP2;P2;SDS_P1;SDS_P2;PMS_P1;PMS_P2;Temp;Humidity;BMP_temperature;BMP_pressure;BME280_temperature;BME280_humidity;BME280_pressure;Samples;Min_cycle;Max_cycle;Signal;HPM_P1;HPM_P2
2022/07/06 00:08:23;;;;;;;3.53;2.50;;;20.70;56.10;;;;;;20978358;28;20230;-71
2022/07/06 00:18:26;;;;;;;5.87;2.90;;;20.50;56.50;;;;;;21030101;28;20202;-72
2022/07/06 00:28:29;;;;;;;4.83;2.73;;;20.40;57.00;;;;;;21007337;28;20701;-72
2022/07/06 00:38:31;;;;;;;5.93;2.73;;;20.20;57.40;;;;;;21005553;28;20216;-72
2022/07/06 00:48:32;;;;;;;2.80;2.60;;;20.00;58.00;;;;;;21011752;28;20249;-72
2022/07/06 00:58:34;;;;;;;5.63;2.80;;;19.80;58.80;;;;;;21010581;28;20210;-71
2022/07/06 01:08:38;;;;;;;8.73;2.53;;;19.80;59.00;;;;;;21009214;28;20322;-72
2022/07/06 01:18:41;;;;;;;8.70;2.70;;;19.80;59.50;;;;;;21009055;28;20209;-72
2022/07/06 01:28:43;;;;;;;4.30;2.53;;;20.10;60.00;;;;;;21008330;28;20261;-72
2022/07/06 01:38:49;;;;;;;4.90;2.27;;;20.10;60.00;;;;;;20989709;28;20216;-72
2022/07/06 01:48:51;;;;;;;4.00;2.70;;;20.20;60.10;;;;;;21006000;28;20250;-72
2022/07/06 01:58:53;;;;;;;6.27;2.70;;;20.20;60.10;;;;;;21005908;28;20811;-70
2022/07/06 02:08:55;;;;;;;3.27;2.40;;;20.20;59.70;;;;;;21004748;28;20603;-72
2022/07/06 02:18:57;;;;;;;4.53;2.60;;;20.20;59.70;;;;;;21003552;28;20220;-72
2022/07/06 02:28:59;;;;;;;6.43;2.43;;;20.10;59.50;;;;;;21000373;28;20754;-74
2022/07/06 02:39:00;;;;;;;2.70;2.30;;;20.00;59.50;;;;;;21002286;28;20202;-72
2022/07/06 02:49:02;;;;;;;2.57;2.03;;;19.90;59.50;;;;;;21001500;28;20258;-71
2022/07/06 02:59:04;;;;;;;5.37;2.60;;;19.80;59.40;;;;;;21000489;28;20204;-72
2022/07/06 03:09:11;;;;;;;6.00;2.23;;;19.70;58.80;;;;;;21000125;28;20288;-72
2022/07/06 03:19:13;;;;;;;6.80;2.03;;;19.70;59.20;;;;;;20999040;28;20216;-71
2022/07/06 03:29:14;;;;;;;4.47;2.27;;;19.70;59.00;;;;;;20998425;28;20240;-71
2022/07/06 03:39:16;;;;;;;2.53;2.10;;;19.80;59.00;;;;;;20998158;28;20240;-71
2022/07/06 03:49:18;;;;;;;2.77;2.03;;;19.80;58.90;;;;;;20979206;28;20253;-71
2022/07/06 03:59:19;;;;;;;4.03;2.57;;;19.70;59.00;;;;;;20996367;28;20208;-72
2022/07/06 04:09:21;;;;;;;3.67;2.60;;;19.50;58.80;;;;;;20996273;28;20239;-70
2022/07/06 04:19:23;;;;;;;5.47;2.57;;;19.40;59.40;;;;;;20995242;28;20206;-69
2022/07/06 04:29:25;;;;;;;4.67;2.80;;;19.40;59.90;;;;;;20992985;28;20235;-70
2022/07/06 04:39:27;;;;;;;6.87;2.40;;;19.40;60.00;;;;;;21014263;28;20210;-72
2022/07/06 04:49:29;;;;;;;6.50;2.10;;;19.40;60.10;;;;;;20937120;28;20272;-71
2022/07/06 04:59:30;;;;;;;4.47;2.20;;;19.60;60.40;;;;;;20911458;28;20606;-70
2022/07/06 05:09:32;;;;;;;7.73;2.30;;;19.60;61.00;;;;;;20910496;28;20241;-70
2022/07/06 05:19:34;;;;;;;4.63;2.30;;;19.60;61.00;;;;;;20909683;28;20213;-70
2022/07/06 05:29:36;;;;;;;5.27;2.60;;;19.50;61.10;;;;;;20921351;28;20701;-71
2022/07/06 05:39:38;;;;;;;5.30;2.57;;;19.60;62.20;;;;;;20924190;28;20570;-71
2022/07/06 06:00:05;;;;;;;6.57;2.57;;;19.90;61.80;;;;;;20922929;28;20215;-74
2022/07/06 06:10:10;;;;;;;7.57;2.40;;;20.00;61.90;;;;;;20919797;28;20234;-74
2022/07/06 06:20:14;;;;;;;5.03;2.40;;;20.00;61.90;;;;;;20926299;28;20211;-74
2022/07/06 06:30:16;;;;;;;10.23;2.53;;;20.10;62.10;;;;;;20997690;28;20233;-73
2022/07/06 06:40:18;;;;;;;8.87;2.57;;;20.00;62.30;;;;;;21000958;28;20788;-73
2022/07/06 06:50:20;;;;;;;5.20;2.77;;;20.20;62.30;;;;;;20999471;28;20330;-74
2022/07/06 07:00:22;;;;;;;8.77;1.97;;;20.30;62.00;;;;;;20999641;28;20311;-73
2022/07/06 07:10:26;;;;;;;10.17;2.53;;;20.40;61.20;;;;;;20997253;28;20289;-73
2022/07/06 07:20:29;;;;;;;8.57;2.30;;;20.40;61.80;;;;;;20994300;28;20214;-71
2022/07/06 07:30:31;;;;;;;4.87;2.30;;;20.50;62.00;;;;;;20997157;28;20747;-74
2022/07/06 07:40:35;;;;;;;6.00;2.50;;;20.40;61.50;;;;;;20996607;28;20239;-73
2022/07/06 07:50:36;;;;;;;6.87;2.47;;;20.70;61.30;;;;;;20995392;28;20235;-71
2022/07/06 08:00:41;;;;;;;11.80;3.93;;;21.00;60.80;;;;;;20995081;28;20624;-75
2022/07/06 08:10:42;;;;;;;7.33;3.13;;;21.00;60.50;;;;;;20994860;28;20706;-73
2022/07/06 08:21:05;;;;;;;6.83;2.37;;;21.30;59.80;;;;;;20969917;28;20591;-73
2022/07/06 08:31:27;;;;;;;6.07;2.77;;;21.30;59.20;;;;;;20908445;28;20278;-74
2022/07/06 08:41:50;;;;;;;7.97;2.50;;;21.50;58.90;;;;;;20911988;28;20235;-74
2022/07/06 08:51:52;;;;;;;9.10;2.77;;;21.70;58.30;;;;;;20909395;28;20246;-73
2022/07/06 09:01:54;;;;;;;9.47;4.80;;;22.00;57.70;;;;;;20931552;28;20218;-74
2022/07/06 09:11:56;;;;;;;7.93;4.00;;;22.30;56.80;;;;;;20954431;28;20357;-73
2022/07/06 09:22:04;;;;;;;11.33;2.90;;;22.40;57.00;;;;;;20925772;28;20546;-74
2022/07/06 09:32:06;;;;;;;8.63;5.20;;;22.60;56.80;;;;;;20924162;28;20610;-74
2022/07/06 09:42:08;;;;;;;11.13;2.87;;;22.40;56.60;;;;;;20923464;28;20239;-74
2022/07/06 09:52:11;;;;;;;7.37;2.50;;;22.20;56.80;;;;;;20921551;28;20240;-72
2022/07/06 10:02:14;;;;;;;7.27;3.17;;;22.30;56.80;;;;;;20922475;28;20204;-73
2022/07/06 10:12:17;;;;;;;6.80;2.67;;;22.50;56.20;;;;;;20919293;28;20232;-75
2022/07/06 10:22:19;;;;;;;3.73;2.33;;;22.80;55.90;;;;;;20920135;28;20673;-74
2022/07/06 10:32:23;;;;;;;8.87;2.40;;;23.00;54.30;;;;;;20917537;28;20231;-75
2022/07/06 10:42:51;;;;;;;4.90;2.03;;;23.10;53.20;;;;;;20916853;28;20711;-72
2022/07/06 10:52:58;;;;;;;8.20;2.60;;;23.00;50.70;;;;;;20914395;28;20232;-72
2022/07/06 11:03:29;;;;;;;4.60;2.30;;;23.10;51.00;;;;;;20916155;28;20621;-73
2022/07/06 11:13:31;;;;;;;5.50;2.60;;;23.50;50.10;;;;;;20916577;28;20696;-74
2022/07/06 11:23:35;;;;;;;5.87;2.23;;;23.30;49.80;;;;;;20914199;28;20262;-74
2022/07/06 11:33:36;;;;;;;2.97;2.10;;;23.20;49.10;;;;;;20913944;28;20235;-75
2022/07/06 11:43:42;;;;;;;8.47;2.43;;;23.20;49.60;;;;;;20912321;28;20247;-75
2022/07/06 11:53:46;;;;;;;6.03;2.20;;;22.90;49.40;;;;;;20941844;28;20231;-78
2022/07/06 12:03:59;;;;;;;3.27;2.07;;;22.80;50.10;;;;;;20908239;28;20208;-71
2022/07/06 12:14:19;;;;;;;3.97;1.80;;;23.20;48.00;;;;;;20978585;28;20672;-72
2022/07/06 12:24:23;;;;;;;5.93;2.00;;;23.70;47.20;;;;;;20982373;28;20203;-71
2022/07/06 12:34:34;;;;;;;2.80;1.80;;;24.10;46.10;;;;;;21072742;28;20234;-71
2022/07/06 12:44:50;;;;;;;4.10;1.60;;;24.10;44.90;;;;;;21039005;28;1033665;-71
2022/07/06 12:54:52;;;;;;;5.20;2.20;;;24.10;44.10;;;;;;21074739;28;20230;-70
2022/07/06 13:04:56;;;;;;;3.30;1.70;;;24.00;44.00;;;;;;21076104;28;20220;-73
2022/07/06 13:14:57;;;;;;;2.27;1.70;;;24.00;43.70;;;;;;21076360;28;20325;-72
2022/07/06 13:24:59;;;;;;;4.03;2.10;;;24.00;42.60;;;;;;21075700;28;20565;-71
2022/07/06 13:35:02;;;;;;;6.07;1.80;;;24.00;43.00;;;;;;21072502;28;20245;-71
2022/07/06 13:45:04;;;;;;;3.07;1.77;;;23.90;42.50;;;;;;21084216;28;20332;-72
2022/07/06 13:55:07;;;;;;;5.40;2.10;;;24.10;42.10;;;;;;21126442;28;20234;-72
2022/07/06 14:05:09;;;;;;;2.47;1.90;;;24.00;42.30;;;;;;21098904;28;20230;-69
2022/07/06 14:15:11;;;;;;;14.93;3.00;;;24.00;43.20;;;;;;21059174;28;20241;-70
2022/07/06 14:25:12;;;;;;;6.63;2.60;;;24.00;43.10;;;;;;21002225;28;20560;-71
2022/07/06 14:35:14;;;;;;;5.37;2.13;;;23.90;42.70;;;;;;21002610;28;20234;-71
2022/07/06 14:45:16;;;;;;;3.53;2.03;;;24.10;43.50;;;;;;21000967;28;20242;-72
2022/07/06 14:55:18;;;;;;;4.67;2.93;;;24.20;43.50;;;;;;21004635;28;20590;-72
2022/07/06 15:05:20;;;;;;;12.60;2.20;;;24.30;43.10;;;;;;21024068;28;20565;-73
2022/07/06 15:15:22;;;;;;;5.80;2.90;;;23.90;43.00;;;;;;21001059;28;20242;-72
2022/07/06 15:25:44;;;;;;;8.30;4.00;;;24.00;42.40;;;;;;21000757;28;20615;-71
2022/07/06 15:35:51;;;;;;;4.80;3.17;;;24.10;43.00;;;;;;20998207;28;20231;-71
2022/07/06 15:46:00;;;;;;;5.43;2.40;;;24.00;42.90;;;;;;20997552;28;20227;-71
2022/07/06 15:56:02;;;;;;;6.20;2.60;;;24.10;42.20;;;;;;20997687;28;20314;-71
2022/07/06 16:06:05;;;;;;;5.97;2.77;;;24.60;41.00;;;;;;20996661;28;20202;-71
2022/07/06 16:16:11;;;;;;;6.10;3.30;;;24.80;41.60;;;;;;20995442;28;20235;-71
2022/07/06 16:26:14;;;;;;;5.90;2.87;;;25.80;39.80;;;;;;20991675;28;20215;-71
2022/07/06 16:36:16;;;;;;;3.90;3.10;;;24.90;40.60;;;;;;20995453;28;20709;-70
2022/07/06 16:46:18;;;;;;;3.50;2.67;;;24.40;40.40;;;;;;20995186;28;20242;-72
2022/07/06 16:56:19;;;;;;;6.40;2.70;;;23.70;41.40;;;;;;20994896;28;20698;-71
2022/07/06 17:06:22;;;;;;;6.10;4.50;;;23.60;42.00;;;;;;20994020;28;20230;-71
2022/07/06 17:16:25;;;;;;;4.03;2.80;;;23.30;42.50;;;;;;20997021;28;20235;-72
2022/07/06 17:26:27;;;;;;;3.63;2.73;;;23.10;42.50;;;;;;21008993;28;20209;-71
2022/07/06 17:36:29;;;;;;;3.73;2.57;;;23.10;42.80;;;;;;21008140;28;20242;-71
2022/07/06 17:46:31;;;;;;;5.17;2.60;;;22.90;43.00;;;;;;21007053;28;20669;-71
2022/07/06 17:56:32;;;;;;;3.80;2.27;;;23.00;43.00;;;;;;20989044;28;20736;-69
2022/07/06 18:06:34;;;;;;;2.30;1.67;;;22.80;42.90;;;;;;21006738;28;20689;-72
2022/07/06 18:16:36;;;;;;;2.70;1.53;;;22.70;43.40;;;;;;21029367;28;20288;-70
2022/07/06 18:26:39;;;;;;;2.83;2.00;;;22.60;44.30;;;;;;21085121;28;20323;-66
2022/07/06 18:36:42;;;;;;;4.50;1.80;;;22.70;45.20;;;;;;21085298;28;20670;-68
2022/07/06 18:46:43;;;;;;;3.10;1.70;;;22.40;45.40;;;;;;21093771;28;20301;-70
2022/07/06 18:56:47;;;;;;;3.07;2.40;;;22.20;46.00;;;;;;21125315;28;20214;-70
2022/07/06 19:06:49;;;;;;;6.83;1.97;;;22.10;46.40;;;;;;21089128;28;20213;-66
2022/07/06 19:16:51;;;;;;;4.43;1.70;;;21.90;47.00;;;;;;21161566;28;20209;-68
2022/07/06 19:26:53;;;;;;;2.87;1.80;;;21.90;47.80;;;;;;21165418;28;20205;-74
2022/07/06 19:36:55;;;;;;;3.30;1.70;;;21.90;48.10;;;;;;21165007;28;20210;-65
2022/07/06 19:46:57;;;;;;;6.63;2.63;;;21.80;48.20;;;;;;21161509;28;20229;-69
2022/07/06 19:56:59;;;;;;;3.77;2.07;;;21.50;48.40;;;;;;21175688;28;20289;-66
2022/07/06 20:07:00;;;;;;;2.07;1.73;;;21.40;48.80;;;;;;21177617;28;20206;-66
2022/07/06 20:17:10;;;;;;;2.80;2.00;;;21.10;49.30;;;;;;21177444;28;20202;-66
2022/07/06 20:27:11;;;;;;;3.20;2.10;;;21.00;50.00;;;;;;21172821;28;20694;-67
2022/07/06 20:37:13;;;;;;;2.30;1.90;;;20.90;50.40;;;;;;21181778;28;20567;-66
2022/07/06 20:47:16;;;;;;;5.93;2.00;;;20.70;50.30;;;;;;21184754;28;20336;-65
2022/07/06 20:57:17;;;;;;;6.87;2.10;;;20.50;50.90;;;;;;21212474;28;20614;-68
2022/07/06 21:07:19;;;;;;;4.33;2.00;;;20.40;51.10;;;;;;21159555;28;20223;-67
2022/07/06 21:17:22;;;;;;;3.30;2.30;;;20.40;51.50;;;;;;21008951;28;20297;-74
2022/07/06 21:27:24;;;;;;;5.10;2.20;;;20.40;51.30;;;;;;21007589;28;20248;-71
2022/07/06 21:37:26;;;;;;;3.00;2.17;;;20.30;51.50;;;;;;21006375;28;20576;-66
2022/07/06 21:47:28;;;;;;;2.90;2.17;;;20.10;51.50;;;;;;21003939;28;20243;-66
2022/07/06 21:57:30;;;;;;;4.03;2.00;;;20.10;51.90;;;;;;21005622;28;20224;-66
2022/07/06 22:07:32;;;;;;;3.20;2.20;;;20.10;51.90;;;;;;21005757;28;20591;-65
2022/07/06 22:17:34;;;;;;;4.17;2.20;;;20.10;52.00;;;;;;21012855;28;20209;-63
2022/07/06 22:27:36;;;;;;;5.20;2.50;;;20.00;52.20;;;;;;21000867;28;20233;-66
2022/07/06 22:37:38;;;;;;;3.13;2.20;;;20.00;52.40;;;;;;21003214;28;20213;-67
2022/07/06 22:47:39;;;;;;;2.77;2.10;;;19.90;52.60;;;;;;21002373;28;20324;-70
2022/07/06 22:57:41;;;;;;;3.47;2.33;;;19.70;53.30;;;;;;21001861;28;20209;-66
2022/07/06 23:07:44;;;;;;;2.80;2.30;;;19.60;53.70;;;;;;21001334;28;20241;-69
2022/07/06 23:17:45;;;;;;;2.80;2.33;;;19.60;54.00;;;;;;21000049;28;20569;-72
2022/07/06 23:27:48;;;;;;;4.90;2.67;;;19.60;54.10;;;;;;21024769;28;20234;-68
2022/07/06 23:37:50;;;;;;;4.43;2.10;;;19.50;54.00;;;;;;21009266;28;20268;-66
2022/07/06 23:47:52;;;;;;;3.00;2.23;;;19.40;54.10;;;;;;20997758;28;20234;-72
2022/07/06 23:57:54;;;;;;;6.03;2.60;;;19.40;54.40;;;;;;20997173;28;20610;-64
